sensor_id;sensor_type;location;lat;lon;timestamp;temperature;humidity
16968;DHT22;64862;54.398;10.126;2023-04-04T00:04:35;1.40;99.90
16968;DHT22;64862;54.398;10.126;2023-04-04T00:14:37;1.30;99.90
16968;DHT22;64862;54.398;10.126;2023-04-04T00:24:40;1.40;99.90
16968;DHT22;64862;54.398;10.126;2023-04-04T00:34:42;1.30;99.90
16968;DHT22;64862;54.398;10.126;2023-04-04T00:44:45;1.40;99.90
16968;DHT22;64862;54.398;10.126;2023-04-04T00:54:48;1.30;99.90
16968;DHT22;64862;54.398;10.126;2023-04-04T01:04:51;1.30;99.90
16968;DHT22;64862;54.398;10.126;2023-04-04T01:14:53;1.10;99.90
16968;DHT22;64862;54.398;10.126;2023-04-04T01:24:58;1.00;99.90
16968;DHT22;64862;54.398;10.126;2023-04-04T01:35:12;1.00;99.90
16968;DHT22;64862;54.398;10.126;2023-04-04T01:45:21;1.10;99.90
16968;DHT22;64862;54.398;10.126;2023-04-04T01:55:26;1.00;99.90
16968;DHT22;64862;54.398;10.126;2023-04-04T02:05:28;1.10;99.90
16968;DHT22;64862;54.398;10.126;2023-04-04T02:15:31;1.00;99.90
16968;DHT22;64862;54.398;10.126;2023-04-04T02:25:34;1.30;99.90
16968;DHT22;64862;54.398;10.126;2023-04-04T02:35:37;1.50;99.90
16968;DHT22;64862;54.398;10.126;2023-04-04T02:45:40;1.60;99.90
16968;DHT22;64862;54.398;10.126;2023-04-04T02:56:09;1.60;99.90
16968;DHT22;64862;54.398;10.126;2023-04-04T03:06:11;1.50;99.90
16968;DHT22;64862;54.398;10.126;2023-04-04T03:16:16;1.30;99.90
16968;DHT22;64862;54.398;10.126;2023-04-04T03:26:25;1.20;99.90
16968;DHT22;64862;54.398;10.126;2023-04-04T03:36:30;1.20;99.90
16968;DHT22;64862;54.398;10.126;2023-04-04T03:46:33;1.10;99.90
16968;DHT22;64862;54.398;10.126;2023-04-04T03:56:38;1.20;99.90
16968;DHT22;64862;54.398;10.126;2023-04-04T04:06:42;1.20;99.90
16968;DHT22;64862;54.398;10.126;2023-04-04T04:16:45;1.10;99.90
16968;DHT22;64862;54.398;10.126;2023-04-04T04:26:52;0.90;99.90
16968;DHT22;64862;54.398;10.126;2023-04-04T04:36:56;0.90;99.90
16968;DHT22;64862;54.398;10.126;2023-04-04T04:47:02;0.90;99.90
16968;DHT22;64862;54.398;10.126;2023-04-04T04:57:06;0.90;99.90
16968;DHT22;64862;54.398;10.126;2023-04-04T05:07:10;0.80;99.90
16968;DHT22;64862;54.398;10.126;2023-04-04T05:17:16;0.80;99.90
16968;DHT22;64862;54.398;10.126;2023-04-04T05:27:18;1.10;99.90
16968;DHT22;64862;54.398;10.126;2023-04-04T05:37:29;0.90;99.90
16968;DHT22;64862;54.398;10.126;2023-04-04T05:47:31;1.00;99.90
16968;DHT22;64862;54.398;10.126;2023-04-04T05:57:35;1.10;99.90
16968;DHT22;64862;54.398;10.126;2023-04-04T06:07:37;1.30;99.90
16968;DHT22;64862;54.398;10.126;2023-04-04T06:17:43;1.80;99.90
16968;DHT22;64862;54.398;10.126;2023-04-04T06:27:46;2.40;99.90
16968;DHT22;64862;54.398;10.126;2023-04-04T06:37:54;3.70;99.90
16968;DHT22;64862;54.398;10.126;2023-04-04T06:47:57;4.90;99.90
16968;DHT22;64862;54.398;10.126;2023-04-04T06:58:01;6.00;99.90
16968;DHT22;64862;54.398;10.126;2023-04-04T07:08:03;5.80;99.90
16968;DHT22;64862;54.398;10.126;2023-04-04T07:18:07;6.20;99.90
16968;DHT22;64862;54.398;10.126;2023-04-04T07:28:10;6.20;99.90
16968;DHT22;64862;54.398;10.126;2023-04-04T07:38:13;7.20;99.90
16968;DHT22;64862;54.398;10.126;2023-04-04T07:48:16;7.20;99.90
16968;DHT22;64862;54.398;10.126;2023-04-04T07:58:19;7.30;99.90
16968;DHT22;64862;54.398;10.126;2023-04-04T08:08:22;7.50;99.90
16968;DHT22;64862;54.398;10.126;2023-04-04T08:28:49;9.50;99.90
16968;DHT22;64862;54.398;10.126;2023-04-04T08:38:53;11.90;99.90
16968;DHT22;64862;54.398;10.126;2023-04-04T08:48:55;11.30;99.90
16968;DHT22;64862;54.398;10.126;2023-04-04T08:59:01;9.70;99.90
16968;DHT22;64862;54.398;10.126;2023-04-04T09:09:03;9.80;99.90
16968;DHT22;64862;54.398;10.126;2023-04-04T09:19:08;10.30;99.90
16968;DHT22;64862;54.398;10.126;2023-04-04T09:29:10;10.50;99.90
16968;DHT22;64862;54.398;10.126;2023-04-04T09:39:15;11.10;99.90
16968;DHT22;64862;54.398;10.126;2023-04-04T09:49:20;14.30;99.90
16968;DHT22;64862;54.398;10.126;2023-04-04T09:59:23;15.20;98.50
16968;DHT22;64862;54.398;10.126;2023-04-04T10:09:27;14.50;96.30
16968;DHT22;64862;54.398;10.126;2023-04-04T10:19:32;14.30;95.20
16968;DHT22;64862;54.398;10.126;2023-04-04T10:29:35;13.60;96.20
16968;DHT22;64862;54.398;10.126;2023-04-04T10:39:43;12.50;98.20
16968;DHT22;64862;54.398;10.126;2023-04-04T10:49:48;12.20;97.40
16968;DHT22;64862;54.398;10.126;2023-04-04T11:00:00;12.60;97.00
16968;DHT22;64862;54.398;10.126;2023-04-04T11:10:12;13.00;96.20
16968;DHT22;64862;54.398;10.126;2023-04-04T11:20:18;12.30;95.10
16968;DHT22;64862;54.398;10.126;2023-04-04T11:30:21;12.10;97.20
16968;DHT22;64862;54.398;10.126;2023-04-04T11:40:35;11.60;94.80
16968;DHT22;64862;54.398;10.126;2023-04-04T11:50:40;11.20;96.50
16968;DHT22;64862;54.398;10.126;2023-04-04T12:00:44;10.70;96.10
16968;DHT22;64862;54.398;10.126;2023-04-04T12:10:47;9.70;95.70
16968;DHT22;64862;54.398;10.126;2023-04-04T12:20:51;9.30;95.60
16968;DHT22;64862;54.398;10.126;2023-04-04T12:30:54;9.70;96.30
16968;DHT22;64862;54.398;10.126;2023-04-04T12:40:58;9.90;97.80
16968;DHT22;64862;54.398;10.126;2023-04-04T12:51:00;10.70;96.80
16968;DHT22;64862;54.398;10.126;2023-04-04T13:01:14;9.60;95.80
16968;DHT22;64862;54.398;10.126;2023-04-04T13:11:18;9.30;96.30
16968;DHT22;64862;54.398;10.126;2023-04-04T13:21:22;9.20;97.10
16968;DHT22;64862;54.398;10.126;2023-04-04T13:31:25;9.20;98.60
16968;DHT22;64862;54.398;10.126;2023-04-04T13:41:34;8.90;97.10
16968;DHT22;64862;54.398;10.126;2023-04-04T13:51:36;8.60;97.10
16968;DHT22;64862;54.398;10.126;2023-04-04T14:01:39;8.60;97.50
16968;DHT22;64862;54.398;10.126;2023-04-04T14:11:42;8.40;96.30
16968;DHT22;64862;54.398;10.126;2023-04-04T14:21:47;8.50;96.30
16968;DHT22;64862;54.398;10.126;2023-04-04T14:31:49;8.50;97.40
16968;DHT22;64862;54.398;10.126;2023-04-04T14:41:52;8.30;96.40
16968;DHT22;64862;54.398;10.126;2023-04-04T14:51:55;8.30;98.40
16968;DHT22;64862;54.398;10.126;2023-04-04T15:01:59;8.40;99.90
16968;DHT22;64862;54.398;10.126;2023-04-04T15:12:01;8.50;99.90
16968;DHT22;64862;54.398;10.126;2023-04-04T15:22:05;8.40;99.90
16968;DHT22;64862;54.398;10.126;2023-04-04T15:32:07;8.00;99.90
16968;DHT22;64862;54.398;10.126;2023-04-04T15:42:11;7.90;99.90
16968;DHT22;64862;54.398;10.126;2023-04-04T15:52:13;7.80;99.90
16968;DHT22;64862;54.398;10.126;2023-04-04T16:02:17;7.80;99.90
16968;DHT22;64862;54.398;10.126;2023-04-04T16:12:19;7.70;99.90
16968;DHT22;64862;54.398;10.126;2023-04-04T16:22:24;7.80;99.90
16968;DHT22;64862;54.398;10.126;2023-04-04T16:32:27;7.80;99.90
16968;DHT22;64862;54.398;10.126;2023-04-04T16:42:31;7.70;99.90
16968;DHT22;64862;54.398;10.126;2023-04-04T16:52:33;7.50;99.90
16968;DHT22;64862;54.398;10.126;2023-04-04T17:02:37;7.50;99.90
16968;DHT22;64862;54.398;10.126;2023-04-04T17:12:44;7.40;99.90
16968;DHT22;64862;54.398;10.126;2023-04-04T17:22:48;7.30;99.90
16968;DHT22;64862;54.398;10.126;2023-04-04T17:32:53;7.20;99.90
16968;DHT22;64862;54.398;10.126;2023-04-04T17:42:57;7.00;99.90
16968;DHT22;64862;54.398;10.126;2023-04-04T17:52:59;6.90;99.90
16968;DHT22;64862;54.398;10.126;2023-04-04T18:03:04;6.50;99.90
16968;DHT22;64862;54.398;10.126;2023-04-04T18:13:06;6.10;99.90
16968;DHT22;64862;54.398;10.126;2023-04-04T18:23:10;5.80;99.90
16968;DHT22;64862;54.398;10.126;2023-04-04T18:33:12;5.40;99.90
16968;DHT22;64862;54.398;10.126;2023-04-04T18:43:16;5.10;99.90
16968;DHT22;64862;54.398;10.126;2023-04-04T18:53:18;4.90;99.90
16968;DHT22;64862;54.398;10.126;2023-04-04T19:03:22;4.70;99.90
16968;DHT22;64862;54.398;10.126;2023-04-04T19:13:25;4.40;99.90
16968;DHT22;64862;54.398;10.126;2023-04-04T19:23:29;4.30;99.90
16968;DHT22;64862;54.398;10.126;2023-04-04T19:33:32;4.10;99.90
16968;DHT22;64862;54.398;10.126;2023-04-04T19:43:36;4.00;99.90
16968;DHT22;64862;54.398;10.126;2023-04-04T19:53:39;3.90;99.90
16968;DHT22;64862;54.398;10.126;2023-04-04T20:03:44;3.70;99.90
16968;DHT22;64862;54.398;10.126;2023-04-04T20:13:48;3.60;99.90
16968;DHT22;64862;54.398;10.126;2023-04-04T20:23:55;3.50;99.90
16968;DHT22;64862;54.398;10.126;2023-04-04T20:33:57;3.50;99.90
16968;DHT22;64862;54.398;10.126;2023-04-04T20:44:01;3.30;99.90
16968;DHT22;64862;54.398;10.126;2023-04-04T20:54:04;3.20;99.90
16968;DHT22;64862;54.398;10.126;2023-04-04T21:04:21;3.20;99.90
16968;DHT22;64862;54.398;10.126;2023-04-04T21:14:33;3.60;99.90
16968;DHT22;64862;54.398;10.126;2023-04-04T21:24:48;3.30;99.90
16968;DHT22;64862;54.398;10.126;2023-04-04T21:34:50;2.90;99.90
16968;DHT22;64862;54.398;10.126;2023-04-04T21:44:54;2.70;99.90
16968;DHT22;64862;54.398;10.126;2023-04-04T21:54:56;2.80;99.90
16968;DHT22;64862;54.398;10.126;2023-04-04T22:05:00;2.70;99.90
16968;DHT22;64862;54.398;10.126;2023-04-04T22:15:02;2.60;99.90
16968;DHT22;64862;54.398;10.126;2023-04-04T22:25:07;2.70;99.90
16968;DHT22;64862;54.398;10.126;2023-04-04T22:35:09;2.60;99.90
16968;DHT22;64862;54.398;10.126;2023-04-04T22:45:13;2.50;99.90
16968;DHT22;64862;54.398;10.126;2023-04-04T22:55:17;2.50;99.90
16968;DHT22;64862;54.398;10.126;2023-04-04T23:05:21;2.60;99.90
16968;DHT22;64862;54.398;10.126;2023-04-04T23:15:23;2.50;99.90
16968;DHT22;64862;54.398;10.126;2023-04-04T23:25:28;2.70;99.90
16968;DHT22;64862;54.398;10.126;2023-04-04T23:35:32;2.70;99.90
16968;DHT22;64862;54.398;10.126;2023-04-04T23:45:36;2.90;99.90
16968;DHT22;64862;54.398;10.126;2023-04-04T23:55:40;2.90;99.90
